sensor_id;sensor_type;location;lat;lon;timestamp;temperature;humidity
2603;DHT22;1311;47.966;7.958;2023-08-30T00:00:55;11.50;99.90
2603;DHT22;1311;47.966;7.958;2023-08-30T00:03:22;11.50;99.90
2603;DHT22;1311;47.966;7.958;2023-08-30T00:05:49;11.50;99.90
2603;DHT22;1311;47.966;7.958;2023-08-30T00:08:16;11.50;99.90
2603;DHT22;1311;47.966;7.958;2023-08-30T00:10:45;11.50;99.90
2603;DHT22;1311;47.966;7.958;2023-08-30T00:13:12;11.50;99.90
2603;DHT22;1311;47.966;7.958;2023-08-30T00:15:39;11.40;99.90
2603;DHT22;1311;47.966;7.958;2023-08-30T00:18:06;11.40;99.90
2603;DHT22;1311;47.966;7.958;2023-08-30T00:20:32;11.30;99.90
2603;DHT22;1311;47.966;7.958;2023-08-30T00:22:59;11.20;99.90
2603;DHT22;1311;47.966;7.958;2023-08-30T00:25:26;11.20;99.90
2603;DHT22;1311;47.966;7.958;2023-08-30T00:27:54;11.20;99.90
2603;DHT22;1311;47.966;7.958;2023-08-30T00:30:21;11.10;99.90
2603;DHT22;1311;47.966;7.958;2023-08-30T00:32:48;11.10;99.90
2603;DHT22;1311;47.966;7.958;2023-08-30T00:35:14;11.00;99.90
2603;DHT22;1311;47.966;7.958;2023-08-30T00:37:41;11.00;99.90
2603;DHT22;1311;47.966;7.958;2023-08-30T00:40:09;11.00;99.90
2603;DHT22;1311;47.966;7.958;2023-08-30T00:42:36;10.90;99.90
2603;DHT22;1311;47.966;7.958;2023-08-30T00:45:08;10.80;99.90
2603;DHT22;1311;47.966;7.958;2023-08-30T00:47:35;10.90;99.90
2603;DHT22;1311;47.966;7.958;2023-08-30T00:50:03;10.90;99.90
2603;DHT22;1311;47.966;7.958;2023-08-30T00:52:30;10.80;99.90
2603;DHT22;1311;47.966;7.958;2023-08-30T00:54:56;10.80;99.90
2603;DHT22;1311;47.966;7.958;2023-08-30T00:57:23;10.80;99.90
2603;DHT22;1311;47.966;7.958;2023-08-30T00:59:51;10.80;99.90
2603;DHT22;1311;47.966;7.958;2023-08-30T01:02:19;10.70;99.90
2603;DHT22;1311;47.966;7.958;2023-08-30T01:04:46;10.70;99.90
2603;DHT22;1311;47.966;7.958;2023-08-30T01:07:13;10.70;99.90
2603;DHT22;1311;47.966;7.958;2023-08-30T01:09:40;10.70;99.90
2603;DHT22;1311;47.966;7.958;2023-08-30T01:12:10;10.70;99.90
2603;DHT22;1311;47.966;7.958;2023-08-30T01:14:45;10.70;99.90
2603;DHT22;1311;47.966;7.958;2023-08-30T01:17:16;10.70;99.90
2603;DHT22;1311;47.966;7.958;2023-08-30T01:19:50;10.70;99.90
2603;DHT22;1311;47.966;7.958;2023-08-30T01:22:29;10.70;99.90
2603;DHT22;1311;47.966;7.958;2023-08-30T01:25:06;10.70;99.90
2603;DHT22;1311;47.966;7.958;2023-08-30T01:27:37;10.70;99.90
2603;DHT22;1311;47.966;7.958;2023-08-30T01:30:07;10.60;99.90
2603;DHT22;1311;47.966;7.958;2023-08-30T01:32:36;10.60;99.90
2603;DHT22;1311;47.966;7.958;2023-08-30T01:35:05;10.50;99.90
2603;DHT22;1311;47.966;7.958;2023-08-30T01:37:33;10.50;99.90
2603;DHT22;1311;47.966;7.958;2023-08-30T01:40:01;10.40;99.90
2603;DHT22;1311;47.966;7.958;2023-08-30T01:42:30;10.40;99.90
2603;DHT22;1311;47.966;7.958;2023-08-30T01:45:00;10.40;99.90
2603;DHT22;1311;47.966;7.958;2023-08-30T01:47:28;10.30;99.90
2603;DHT22;1311;47.966;7.958;2023-08-30T01:49:56;10.30;99.90
2603;DHT22;1311;47.966;7.958;2023-08-30T01:52:24;10.40;99.90
2603;DHT22;1311;47.966;7.958;2023-08-30T01:54:52;10.40;99.90
2603;DHT22;1311;47.966;7.958;2023-08-30T01:57:19;10.40;99.90
2603;DHT22;1311;47.966;7.958;2023-08-30T01:59:46;10.50;99.90
2603;DHT22;1311;47.966;7.958;2023-08-30T02:02:14;10.50;99.90
2603;DHT22;1311;47.966;7.958;2023-08-30T02:04:41;10.50;99.90
2603;DHT22;1311;47.966;7.958;2023-08-30T02:07:15;10.50;99.90
2603;DHT22;1311;47.966;7.958;2023-08-30T02:09:48;10.50;99.90
2603;DHT22;1311;47.966;7.958;2023-08-30T02:12:18;10.60;99.90
2603;DHT22;1311;47.966;7.958;2023-08-30T02:14:48;10.50;99.90
2603;DHT22;1311;47.966;7.958;2023-08-30T02:17:17;10.50;99.90
2603;DHT22;1311;47.966;7.958;2023-08-30T02:19:45;10.50;99.90
2603;DHT22;1311;47.966;7.958;2023-08-30T02:22:12;10.40;99.90
2603;DHT22;1311;47.966;7.958;2023-08-30T02:24:39;10.40;99.90
2603;DHT22;1311;47.966;7.958;2023-08-30T02:27:05;10.30;99.90
2603;DHT22;1311;47.966;7.958;2023-08-30T02:29:32;10.30;99.90
2603;DHT22;1311;47.966;7.958;2023-08-30T02:31:59;10.30;99.90
2603;DHT22;1311;47.966;7.958;2023-08-30T02:34:27;10.20;99.90
2603;DHT22;1311;47.966;7.958;2023-08-30T02:36:54;10.20;99.90
2603;DHT22;1311;47.966;7.958;2023-08-30T02:39:21;10.20;99.90
2603;DHT22;1311;47.966;7.958;2023-08-30T02:41:48;10.20;99.90
2603;DHT22;1311;47.966;7.958;2023-08-30T02:44:15;10.20;99.90
2603;DHT22;1311;47.966;7.958;2023-08-30T02:46:42;10.20;99.90
2603;DHT22;1311;47.966;7.958;2023-08-30T02:49:08;10.20;99.90
2603;DHT22;1311;47.966;7.958;2023-08-30T02:51:38;10.20;99.90
2603;DHT22;1311;47.966;7.958;2023-08-30T02:54:05;10.20;99.90
2603;DHT22;1311;47.966;7.958;2023-08-30T02:56:32;10.20;99.90
2603;DHT22;1311;47.966;7.958;2023-08-30T02:58:58;10.20;99.90
2603;DHT22;1311;47.966;7.958;2023-08-30T03:01:25;10.20;99.90
2603;DHT22;1311;47.966;7.958;2023-08-30T03:03:52;10.20;99.90
2603;DHT22;1311;47.966;7.958;2023-08-30T03:06:19;10.20;99.90
2603;DHT22;1311;47.966;7.958;2023-08-30T03:08:47;10.10;99.90
2603;DHT22;1311;47.966;7.958;2023-08-30T03:11:14;10.10;99.90
2603;DHT22;1311;47.966;7.958;2023-08-30T03:13:40;10.00;99.90
2603;DHT22;1311;47.966;7.958;2023-08-30T03:16:11;10.00;99.90
2603;DHT22;1311;47.966;7.958;2023-08-30T03:18:38;10.00;99.90
2603;DHT22;1311;47.966;7.958;2023-08-30T03:21:05;9.90;99.90
2603;DHT22;1311;47.966;7.958;2023-08-30T03:23:32;9.90;99.90
2603;DHT22;1311;47.966;7.958;2023-08-30T03:26:07;9.90;99.90
2603;DHT22;1311;47.966;7.958;2023-08-30T03:28:34;9.90;99.90
2603;DHT22;1311;47.966;7.958;2023-08-30T03:31:01;9.90;99.90
2603;DHT22;1311;47.966;7.958;2023-08-30T03:33:28;9.90;99.90
2603;DHT22;1311;47.966;7.958;2023-08-30T03:35:58;9.90;99.90
2603;DHT22;1311;47.966;7.958;2023-08-30T03:38:25;9.90;99.90
2603;DHT22;1311;47.966;7.958;2023-08-30T03:40:53;9.90;99.90
2603;DHT22;1311;47.966;7.958;2023-08-30T03:43:21;9.90;99.90
2603;DHT22;1311;47.966;7.958;2023-08-30T03:45:48;9.90;99.90
2603;DHT22;1311;47.966;7.958;2023-08-30T03:48:15;9.90;99.90
2603;DHT22;1311;47.966;7.958;2023-08-30T03:50:42;9.90;99.90
2603;DHT22;1311;47.966;7.958;2023-08-30T03:53:08;9.90;99.90
2603;DHT22;1311;47.966;7.958;2023-08-30T03:55:35;9.90;99.90
2603;DHT22;1311;47.966;7.958;2023-08-30T03:58:02;9.90;99.90
2603;DHT22;1311;47.966;7.958;2023-08-30T04:00:30;9.90;99.90
2603;DHT22;1311;47.966;7.958;2023-08-30T04:02:57;9.90;99.90
2603;DHT22;1311;47.966;7.958;2023-08-30T04:05:23;9.90;99.90
2603;DHT22;1311;47.966;7.958;2023-08-30T04:07:50;9.90;99.90
2603;DHT22;1311;47.966;7.958;2023-08-30T04:10:17;9.90;99.90
2603;DHT22;1311;47.966;7.958;2023-08-30T04:12:44;9.90;99.90
2603;DHT22;1311;47.966;7.958;2023-08-30T04:15:10;9.90;99.90
2603;DHT22;1311;47.966;7.958;2023-08-30T04:17:39;9.80;99.90
2603;DHT22;1311;47.966;7.958;2023-08-30T04:20:07;9.80;99.90
2603;DHT22;1311;47.966;7.958;2023-08-30T04:22:36;9.80;99.90
2603;DHT22;1311;47.966;7.958;2023-08-30T04:25:04;9.80;99.90
2603;DHT22;1311;47.966;7.958;2023-08-30T04:27:31;9.90;99.90
2603;DHT22;1311;47.966;7.958;2023-08-30T04:29:58;9.90;99.90
2603;DHT22;1311;47.966;7.958;2023-08-30T04:32:24;9.90;99.90
2603;DHT22;1311;47.966;7.958;2023-08-30T04:34:52;9.90;99.90
2603;DHT22;1311;47.966;7.958;2023-08-30T04:37:19;10.00;99.90
2603;DHT22;1311;47.966;7.958;2023-08-30T04:39:47;10.00;99.90
2603;DHT22;1311;47.966;7.958;2023-08-30T04:42:14;10.10;99.90
2603;DHT22;1311;47.966;7.958;2023-08-30T04:44:41;10.20;99.90
2603;DHT22;1311;47.966;7.958;2023-08-30T04:47:08;10.20;99.90
2603;DHT22;1311;47.966;7.958;2023-08-30T04:49:34;10.40;99.90
2603;DHT22;1311;47.966;7.958;2023-08-30T04:52:03;10.40;99.90
2603;DHT22;1311;47.966;7.958;2023-08-30T04:54:30;10.40;99.90
2603;DHT22;1311;47.966;7.958;2023-08-30T04:56:57;10.50;99.90
2603;DHT22;1311;47.966;7.958;2023-08-30T04:59:24;10.50;99.90
2603;DHT22;1311;47.966;7.958;2023-08-30T05:01:50;10.60;99.90
2603;DHT22;1311;47.966;7.958;2023-08-30T05:04:17;10.70;99.90
2603;DHT22;1311;47.966;7.958;2023-08-30T05:06:44;10.80;99.90
2603;DHT22;1311;47.966;7.958;2023-08-30T05:09:12;10.90;99.90
2603;DHT22;1311;47.966;7.958;2023-08-30T05:11:40;11.00;99.90
2603;DHT22;1311;47.966;7.958;2023-08-30T05:14:07;11.00;99.90
2603;DHT22;1311;47.966;7.958;2023-08-30T05:16:38;11.10;99.90
2603;DHT22;1311;47.966;7.958;2023-08-30T05:19:04;11.90;99.90
2603;DHT22;1311;47.966;7.958;2023-08-30T05:21:31;12.10;99.90
2603;DHT22;1311;47.966;7.958;2023-08-30T05:23:58;12.20;99.90
2603;DHT22;1311;47.966;7.958;2023-08-30T05:26:26;12.00;99.90
2603;DHT22;1311;47.966;7.958;2023-08-30T05:28:53;11.80;99.90
2603;DHT22;1311;47.966;7.958;2023-08-30T05:31:19;11.70;99.90
2603;DHT22;1311;47.966;7.958;2023-08-30T05:33:46;11.70;99.90
2603;DHT22;1311;47.966;7.958;2023-08-30T05:36:13;11.60;99.90
2603;DHT22;1311;47.966;7.958;2023-08-30T05:38:40;11.50;99.90
2603;DHT22;1311;47.966;7.958;2023-08-30T05:41:07;11.70;99.90
2603;DHT22;1311;47.966;7.958;2023-08-30T05:43:35;11.80;99.90
2603;DHT22;1311;47.966;7.958;2023-08-30T05:46:02;12.00;99.90
2603;DHT22;1311;47.966;7.958;2023-08-30T05:48:29;12.30;99.90
2603;DHT22;1311;47.966;7.958;2023-08-30T05:50:56;12.40;99.90
2603;DHT22;1311;47.966;7.958;2023-08-30T05:53:23;12.50;99.90
2603;DHT22;1311;47.966;7.958;2023-08-30T05:55:49;12.60;99.90
2603;DHT22;1311;47.966;7.958;2023-08-30T05:58:16;12.80;99.90
2603;DHT22;1311;47.966;7.958;2023-08-30T06:00:45;12.80;99.90
2603;DHT22;1311;47.966;7.958;2023-08-30T06:03:11;13.20;99.90
2603;DHT22;1311;47.966;7.958;2023-08-30T06:05:38;13.70;99.90
2603;DHT22;1311;47.966;7.958;2023-08-30T06:08:05;14.20;99.90
2603;DHT22;1311;47.966;7.958;2023-08-30T06:10:33;14.40;99.90
2603;DHT22;1311;47.966;7.958;2023-08-30T06:13:00;14.60;99.90
2603;DHT22;1311;47.966;7.958;2023-08-30T06:15:28;14.60;99.90
2603;DHT22;1311;47.966;7.958;2023-08-30T06:17:56;14.50;99.90
2603;DHT22;1311;47.966;7.958;2023-08-30T06:20:24;14.60;99.90
2603;DHT22;1311;47.966;7.958;2023-08-30T06:22:50;14.60;99.90
2603;DHT22;1311;47.966;7.958;2023-08-30T06:25:17;14.70;99.90
2603;DHT22;1311;47.966;7.958;2023-08-30T06:27:55;14.70;99.90
2603;DHT22;1311;47.966;7.958;2023-08-30T06:30:24;14.80;99.90
2603;DHT22;1311;47.966;7.958;2023-08-30T06:32:51;14.80;99.90
2603;DHT22;1311;47.966;7.958;2023-08-30T06:35:19;14.80;99.90
2603;DHT22;1311;47.966;7.958;2023-08-30T06:37:46;14.90;99.90
2603;DHT22;1311;47.966;7.958;2023-08-30T06:40:12;14.70;99.90
2603;DHT22;1311;47.966;7.958;2023-08-30T06:42:39;14.80;99.90
2603;DHT22;1311;47.966;7.958;2023-08-30T06:45:07;15.00;99.90
2603;DHT22;1311;47.966;7.958;2023-08-30T06:47:33;15.10;99.90
2603;DHT22;1311;47.966;7.958;2023-08-30T06:50:01;15.00;99.90
2603;DHT22;1311;47.966;7.958;2023-08-30T06:52:30;14.80;99.90
2603;DHT22;1311;47.966;7.958;2023-08-30T06:54:57;14.80;99.90
2603;DHT22;1311;47.966;7.958;2023-08-30T06:57:24;14.80;99.90
2603;DHT22;1311;47.966;7.958;2023-08-30T06:59:51;14.80;99.90
2603;DHT22;1311;47.966;7.958;2023-08-30T07:02:18;15.00;99.90
2603;DHT22;1311;47.966;7.958;2023-08-30T07:04:45;15.00;99.90
2603;DHT22;1311;47.966;7.958;2023-08-30T07:07:12;15.10;99.90
2603;DHT22;1311;47.966;7.958;2023-08-30T07:09:40;15.20;99.90
2603;DHT22;1311;47.966;7.958;2023-08-30T07:12:07;15.30;99.90
2603;DHT22;1311;47.966;7.958;2023-08-30T07:14:34;15.70;99.90
2603;DHT22;1311;47.966;7.958;2023-08-30T07:17:01;15.90;99.90
2603;DHT22;1311;47.966;7.958;2023-08-30T07:19:28;15.90;99.90
2603;DHT22;1311;47.966;7.958;2023-08-30T07:21:54;15.90;99.90
2603;DHT22;1311;47.966;7.958;2023-08-30T07:24:21;16.10;99.90
2603;DHT22;1311;47.966;7.958;2023-08-30T07:26:49;16.30;99.90
2603;DHT22;1311;47.966;7.958;2023-08-30T07:29:16;16.50;99.90
2603;DHT22;1311;47.966;7.958;2023-08-30T07:31:43;16.50;99.90
2603;DHT22;1311;47.966;7.958;2023-08-30T07:34:10;16.60;99.90
2603;DHT22;1311;47.966;7.958;2023-08-30T07:36:37;16.70;99.90
2603;DHT22;1311;47.966;7.958;2023-08-30T07:39:03;16.80;99.90
2603;DHT22;1311;47.966;7.958;2023-08-30T07:41:32;16.90;99.90
2603;DHT22;1311;47.966;7.958;2023-08-30T07:44:00;17.10;99.90
2603;DHT22;1311;47.966;7.958;2023-08-30T07:46:26;17.10;99.90
2603;DHT22;1311;47.966;7.958;2023-08-30T07:48:54;17.20;99.90
2603;DHT22;1311;47.966;7.958;2023-08-30T07:51:21;17.00;99.90
2603;DHT22;1311;47.966;7.958;2023-08-30T07:53:47;17.10;99.90
2603;DHT22;1311;47.966;7.958;2023-08-30T07:56:14;17.30;99.90
2603;DHT22;1311;47.966;7.958;2023-08-30T07:58:41;17.40;99.90
2603;DHT22;1311;47.966;7.958;2023-08-30T08:01:09;17.50;99.90
2603;DHT22;1311;47.966;7.958;2023-08-30T08:03:36;17.70;99.90
2603;DHT22;1311;47.966;7.958;2023-08-30T08:06:03;17.90;99.90
2603;DHT22;1311;47.966;7.958;2023-08-30T08:08:30;18.00;99.90
2603;DHT22;1311;47.966;7.958;2023-08-30T08:10:58;18.10;99.90
2603;DHT22;1311;47.966;7.958;2023-08-30T08:13:25;17.90;99.90
2603;DHT22;1311;47.966;7.958;2023-08-30T08:15:51;17.90;99.90
2603;DHT22;1311;47.966;7.958;2023-08-30T08:18:19;17.90;99.90
2603;DHT22;1311;47.966;7.958;2023-08-30T08:20:46;18.00;99.90
2603;DHT22;1311;47.966;7.958;2023-08-30T08:23:13;18.10;99.90
2603;DHT22;1311;47.966;7.958;2023-08-30T08:25:40;18.40;99.90
2603;DHT22;1311;47.966;7.958;2023-08-30T08:28:06;18.50;99.90
2603;DHT22;1311;47.966;7.958;2023-08-30T08:30:33;18.60;99.90
2603;DHT22;1311;47.966;7.958;2023-08-30T08:33:00;18.50;99.90
2603;DHT22;1311;47.966;7.958;2023-08-30T08:35:28;18.80;99.90
2603;DHT22;1311;47.966;7.958;2023-08-30T08:37:55;18.90;99.90
2603;DHT22;1311;47.966;7.958;2023-08-30T08:40:22;19.10;99.90
2603;DHT22;1311;47.966;7.958;2023-08-30T08:42:49;19.10;99.90
2603;DHT22;1311;47.966;7.958;2023-08-30T08:45:17;19.20;99.90
2603;DHT22;1311;47.966;7.958;2023-08-30T08:47:46;19.10;99.90
2603;DHT22;1311;47.966;7.958;2023-08-30T08:50:13;18.90;99.90
2603;DHT22;1311;47.966;7.958;2023-08-30T08:52:41;19.10;99.90
2603;DHT22;1311;47.966;7.958;2023-08-30T08:55:09;19.10;99.90
2603;DHT22;1311;47.966;7.958;2023-08-30T08:57:37;19.20;99.90
2603;DHT22;1311;47.966;7.958;2023-08-30T09:00:05;19.00;99.90
2603;DHT22;1311;47.966;7.958;2023-08-30T09:02:33;19.10;99.90
2603;DHT22;1311;47.966;7.958;2023-08-30T09:05:00;19.20;99.90
2603;DHT22;1311;47.966;7.958;2023-08-30T09:07:27;19.50;99.90
2603;DHT22;1311;47.966;7.958;2023-08-30T09:09:56;19.90;99.90
2603;DHT22;1311;47.966;7.958;2023-08-30T09:12:23;20.00;99.90
2603;DHT22;1311;47.966;7.958;2023-08-30T09:14:54;19.70;99.90
2603;DHT22;1311;47.966;7.958;2023-08-30T09:17:22;19.60;99.90
2603;DHT22;1311;47.966;7.958;2023-08-30T09:19:48;19.50;99.90
2603;DHT22;1311;47.966;7.958;2023-08-30T09:22:15;19.70;99.90
2603;DHT22;1311;47.966;7.958;2023-08-30T09:24:42;19.70;99.90
2603;DHT22;1311;47.966;7.958;2023-08-30T09:27:10;19.80;99.90
2603;DHT22;1311;47.966;7.958;2023-08-30T09:29:37;19.40;99.90
2603;DHT22;1311;47.966;7.958;2023-08-30T09:32:04;19.50;99.90
2603;DHT22;1311;47.966;7.958;2023-08-30T09:34:31;19.50;99.90
2603;DHT22;1311;47.966;7.958;2023-08-30T09:36:58;19.70;99.90
2603;DHT22;1311;47.966;7.958;2023-08-30T09:39:27;19.90;99.90
2603;DHT22;1311;47.966;7.958;2023-08-30T09:41:54;19.80;99.90
2603;DHT22;1311;47.966;7.958;2023-08-30T09:44:22;20.10;99.90
2603;DHT22;1311;47.966;7.958;2023-08-30T09:46:51;20.20;99.90
2603;DHT22;1311;47.966;7.958;2023-08-30T09:49:20;20.20;99.90
2603;DHT22;1311;47.966;7.958;2023-08-30T09:51:48;20.00;99.90
2603;DHT22;1311;47.966;7.958;2023-08-30T09:54:17;20.00;99.90
2603;DHT22;1311;47.966;7.958;2023-08-30T09:56:44;20.10;99.90
2603;DHT22;1311;47.966;7.958;2023-08-30T09:59:11;19.70;99.90
2603;DHT22;1311;47.966;7.958;2023-08-30T10:01:40;19.80;99.90
2603;DHT22;1311;47.966;7.958;2023-08-30T10:04:08;19.60;99.90
2603;DHT22;1311;47.966;7.958;2023-08-30T10:06:37;19.70;99.90
2603;DHT22;1311;47.966;7.958;2023-08-30T10:09:04;19.80;99.90
2603;DHT22;1311;47.966;7.958;2023-08-30T10:11:33;19.40;99.90
2603;DHT22;1311;47.966;7.958;2023-08-30T10:14:02;19.60;99.90
2603;DHT22;1311;47.966;7.958;2023-08-30T10:16:35;19.40;99.90
2603;DHT22;1311;47.966;7.958;2023-08-30T10:19:09;19.30;99.90
2603;DHT22;1311;47.966;7.958;2023-08-30T10:21:37;19.40;99.90
2603;DHT22;1311;47.966;7.958;2023-08-30T10:24:06;19.50;99.90
2603;DHT22;1311;47.966;7.958;2023-08-30T10:26:34;19.50;99.90
2603;DHT22;1311;47.966;7.958;2023-08-30T10:29:01;19.10;99.90
2603;DHT22;1311;47.966;7.958;2023-08-30T10:31:29;19.10;99.90
2603;DHT22;1311;47.966;7.958;2023-08-30T10:33:56;19.20;99.90
2603;DHT22;1311;47.966;7.958;2023-08-30T10:36:25;19.10;99.90
2603;DHT22;1311;47.966;7.958;2023-08-30T10:38:52;19.30;99.90
2603;DHT22;1311;47.966;7.958;2023-08-30T10:41:20;19.00;99.90
2603;DHT22;1311;47.966;7.958;2023-08-30T10:43:49;19.30;99.90
2603;DHT22;1311;47.966;7.958;2023-08-30T10:46:28;19.50;99.90
2603;DHT22;1311;47.966;7.958;2023-08-30T10:48:55;19.40;99.90
2603;DHT22;1311;47.966;7.958;2023-08-30T10:51:37;19.20;99.90
2603;DHT22;1311;47.966;7.958;2023-08-30T10:54:10;19.10;99.90
2603;DHT22;1311;47.966;7.958;2023-08-30T10:56:45;19.20;99.90
2603;DHT22;1311;47.966;7.958;2023-08-30T10:59:16;19.50;99.90
2603;DHT22;1311;47.966;7.958;2023-08-30T11:01:43;19.60;99.90
2603;DHT22;1311;47.966;7.958;2023-08-30T11:04:10;19.60;99.90
2603;DHT22;1311;47.966;7.958;2023-08-30T11:06:40;20.00;99.90
2603;DHT22;1311;47.966;7.958;2023-08-30T11:09:07;20.10;99.90
2603;DHT22;1311;47.966;7.958;2023-08-30T11:11:36;20.20;99.90
2603;DHT22;1311;47.966;7.958;2023-08-30T11:14:07;20.40;99.90
2603;DHT22;1311;47.966;7.958;2023-08-30T11:16:34;20.60;99.90
2603;DHT22;1311;47.966;7.958;2023-08-30T11:19:01;20.50;99.90
2603;DHT22;1311;47.966;7.958;2023-08-30T11:21:29;20.20;99.90
2603;DHT22;1311;47.966;7.958;2023-08-30T11:23:58;20.20;99.90
2603;DHT22;1311;47.966;7.958;2023-08-30T11:26:25;20.30;99.90
2603;DHT22;1311;47.966;7.958;2023-08-30T11:28:52;20.60;99.90
2603;DHT22;1311;47.966;7.958;2023-08-30T11:31:19;20.90;99.90
2603;DHT22;1311;47.966;7.958;2023-08-30T11:33:51;20.90;58.40
2603;DHT22;1311;47.966;7.958;2023-08-30T11:36:19;20.90;1.00
2603;DHT22;1311;47.966;7.958;2023-08-30T11:38:47;21.20;1.00
2603;DHT22;1311;47.966;7.958;2023-08-30T11:41:15;21.50;1.00
2603;DHT22;1311;47.966;7.958;2023-08-30T11:43:42;21.80;1.00
2603;DHT22;1311;47.966;7.958;2023-08-30T11:46:09;22.40;1.00
2603;DHT22;1311;47.966;7.958;2023-08-30T11:48:38;22.40;99.90
2603;DHT22;1311;47.966;7.958;2023-08-30T11:51:05;22.60;99.90
2603;DHT22;1311;47.966;7.958;2023-08-30T11:53:32;22.40;75.70
2603;DHT22;1311;47.966;7.958;2023-08-30T11:55:59;22.50;1.00
2603;DHT22;1311;47.966;7.958;2023-08-30T11:58:28;22.80;1.00
2603;DHT22;1311;47.966;7.958;2023-08-30T12:00:58;22.90;1.00
2603;DHT22;1311;47.966;7.958;2023-08-30T12:03:26;22.60;99.90
2603;DHT22;1311;47.966;7.958;2023-08-30T12:05:54;22.40;99.90
2603;DHT22;1311;47.966;7.958;2023-08-30T12:08:22;22.50;1.00
2603;DHT22;1311;47.966;7.958;2023-08-30T12:10:49;22.80;99.90
2603;DHT22;1311;47.966;7.958;2023-08-30T12:13:20;23.00;99.90
2603;DHT22;1311;47.966;7.958;2023-08-30T12:15:49;23.40;99.90
2603;DHT22;1311;47.966;7.958;2023-08-30T12:18:15;23.40;99.90
2603;DHT22;1311;47.966;7.958;2023-08-30T12:20:52;23.50;1.00
2603;DHT22;1311;47.966;7.958;2023-08-30T12:23:22;23.40;1.00
2603;DHT22;1311;47.966;7.958;2023-08-30T12:25:59;23.50;1.00
2603;DHT22;1311;47.966;7.958;2023-08-30T12:28:26;23.70;1.00
2603;DHT22;1311;47.966;7.958;2023-08-30T12:30:55;23.30;99.90
2603;DHT22;1311;47.966;7.958;2023-08-30T12:33:22;22.50;99.90
2603;DHT22;1311;47.966;7.958;2023-08-30T12:35:51;22.00;1.00
2603;DHT22;1311;47.966;7.958;2023-08-30T12:38:17;22.00;1.00
2603;DHT22;1311;47.966;7.958;2023-08-30T12:40:45;21.60;1.00
2603;DHT22;1311;47.966;7.958;2023-08-30T12:43:12;22.10;99.90
2603;DHT22;1311;47.966;7.958;2023-08-30T12:45:39;21.80;99.90
2603;DHT22;1311;47.966;7.958;2023-08-30T12:48:08;22.20;1.00
2603;DHT22;1311;47.966;7.958;2023-08-30T12:50:35;22.20;99.90
2603;DHT22;1311;47.966;7.958;2023-08-30T12:53:03;22.00;54.10
2603;DHT22;1311;47.966;7.958;2023-08-30T12:55:29;21.90;1.00
2603;DHT22;1311;47.966;7.958;2023-08-30T12:57:56;22.10;1.00
2603;DHT22;1311;47.966;7.958;2023-08-30T13:00:23;21.90;1.00
2603;DHT22;1311;47.966;7.958;2023-08-30T13:02:49;22.30;1.00
2603;DHT22;1311;47.966;7.958;2023-08-30T13:05:18;22.80;1.00
2603;DHT22;1311;47.966;7.958;2023-08-30T13:07:45;22.70;99.90
2603;DHT22;1311;47.966;7.958;2023-08-30T13:10:12;23.10;99.90
2603;DHT22;1311;47.966;7.958;2023-08-30T13:12:38;23.50;99.90
2603;DHT22;1311;47.966;7.958;2023-08-30T13:15:07;23.40;99.90
2603;DHT22;1311;47.966;7.958;2023-08-30T13:17:33;23.70;68.20
2603;DHT22;1311;47.966;7.958;2023-08-30T13:20:00;23.90;54.30
2603;DHT22;1311;47.966;7.958;2023-08-30T13:22:28;23.80;74.20
2603;DHT22;1311;47.966;7.958;2023-08-30T13:24:55;23.40;99.90
2603;DHT22;1311;47.966;7.958;2023-08-30T13:27:22;23.20;99.90
2603;DHT22;1311;47.966;7.958;2023-08-30T13:29:49;23.10;99.90
2603;DHT22;1311;47.966;7.958;2023-08-30T13:32:16;23.10;99.90
2603;DHT22;1311;47.966;7.958;2023-08-30T13:34:42;23.20;99.90
2603;DHT22;1311;47.966;7.958;2023-08-30T13:37:11;23.30;99.90
2603;DHT22;1311;47.966;7.958;2023-08-30T13:39:40;23.70;99.90
2603;DHT22;1311;47.966;7.958;2023-08-30T13:42:07;24.00;99.90
2603;DHT22;1311;47.966;7.958;2023-08-30T13:44:34;23.80;99.90
2603;DHT22;1311;47.966;7.958;2023-08-30T13:47:03;23.10;99.90
2603;DHT22;1311;47.966;7.958;2023-08-30T13:49:30;23.50;99.90
2603;DHT22;1311;47.966;7.958;2023-08-30T13:51:57;23.70;57.70
2603;DHT22;1311;47.966;7.958;2023-08-30T13:54:24;23.40;31.20
2603;DHT22;1311;47.966;7.958;2023-08-30T13:56:52;23.60;64.70
2603;DHT22;1311;47.966;7.958;2023-08-30T13:59:18;23.60;1.00
2603;DHT22;1311;47.966;7.958;2023-08-30T14:01:46;23.00;1.00
2603;DHT22;1311;47.966;7.958;2023-08-30T14:04:13;22.90;1.00
2603;DHT22;1311;47.966;7.958;2023-08-30T14:06:40;23.00;1.00
2603;DHT22;1311;47.966;7.958;2023-08-30T14:09:07;23.30;1.00
2603;DHT22;1311;47.966;7.958;2023-08-30T14:11:34;23.70;1.00
2603;DHT22;1311;47.966;7.958;2023-08-30T14:14:04;24.00;1.00
2603;DHT22;1311;47.966;7.958;2023-08-30T14:16:31;23.70;1.00
2603;DHT22;1311;47.966;7.958;2023-08-30T14:18:58;23.60;1.00
2603;DHT22;1311;47.966;7.958;2023-08-30T14:21:25;23.60;1.00
2603;DHT22;1311;47.966;7.958;2023-08-30T14:23:53;23.30;1.00
2603;DHT22;1311;47.966;7.958;2023-08-30T14:26:20;23.30;1.00
2603;DHT22;1311;47.966;7.958;2023-08-30T14:28:46;23.50;1.00
2603;DHT22;1311;47.966;7.958;2023-08-30T14:31:14;23.50;1.00
2603;DHT22;1311;47.966;7.958;2023-08-30T14:33:43;23.30;1.00
2603;DHT22;1311;47.966;7.958;2023-08-30T14:36:11;23.00;1.00
2603;DHT22;1311;47.966;7.958;2023-08-30T14:38:38;23.00;1.00
2603;DHT22;1311;47.966;7.958;2023-08-30T14:41:06;22.80;1.00
2603;DHT22;1311;47.966;7.958;2023-08-30T14:43:33;22.60;1.00
2603;DHT22;1311;47.966;7.958;2023-08-30T14:46:00;22.40;1.00
2603;DHT22;1311;47.966;7.958;2023-08-30T14:48:29;22.10;1.00
2603;DHT22;1311;47.966;7.958;2023-08-30T14:50:57;22.20;1.00
2603;DHT22;1311;47.966;7.958;2023-08-30T14:53:24;22.00;1.00
2603;DHT22;1311;47.966;7.958;2023-08-30T14:55:51;21.90;1.00
2603;DHT22;1311;47.966;7.958;2023-08-30T14:58:17;22.00;1.00
2603;DHT22;1311;47.966;7.958;2023-08-30T15:00:47;21.90;1.00
2603;DHT22;1311;47.966;7.958;2023-08-30T15:03:14;22.10;1.00
2603;DHT22;1311;47.966;7.958;2023-08-30T15:05:42;21.90;1.00
2603;DHT22;1311;47.966;7.958;2023-08-30T15:08:09;21.70;1.00
2603;DHT22;1311;47.966;7.958;2023-08-30T15:10:35;21.80;1.00
2603;DHT22;1311;47.966;7.958;2023-08-30T15:13:02;21.90;1.00
2603;DHT22;1311;47.966;7.958;2023-08-30T15:15:30;22.00;1.00
2603;DHT22;1311;47.966;7.958;2023-08-30T15:17:57;21.80;1.00
2603;DHT22;1311;47.966;7.958;2023-08-30T15:20:24;21.80;1.00
2603;DHT22;1311;47.966;7.958;2023-08-30T15:22:52;21.70;1.00
2603;DHT22;1311;47.966;7.958;2023-08-30T15:25:19;21.70;1.00
2603;DHT22;1311;47.966;7.958;2023-08-30T15:27:46;21.60;1.00
2603;DHT22;1311;47.966;7.958;2023-08-30T15:30:14;21.60;1.00
2603;DHT22;1311;47.966;7.958;2023-08-30T15:32:41;21.40;1.00
2603;DHT22;1311;47.966;7.958;2023-08-30T15:35:08;21.30;1.00
2603;DHT22;1311;47.966;7.958;2023-08-30T15:37:35;21.30;1.00
2603;DHT22;1311;47.966;7.958;2023-08-30T15:40:05;21.20;1.00
2603;DHT22;1311;47.966;7.958;2023-08-30T15:42:34;21.30;1.00
2603;DHT22;1311;47.966;7.958;2023-08-30T15:45:01;21.50;1.00
2603;DHT22;1311;47.966;7.958;2023-08-30T15:47:30;21.70;1.00
2603;DHT22;1311;47.966;7.958;2023-08-30T15:49:57;21.80;1.00
2603;DHT22;1311;47.966;7.958;2023-08-30T15:52:24;21.90;1.00
2603;DHT22;1311;47.966;7.958;2023-08-30T15:54:51;22.00;1.00
2603;DHT22;1311;47.966;7.958;2023-08-30T15:57:19;22.10;1.00
2603;DHT22;1311;47.966;7.958;2023-08-30T15:59:46;22.20;1.00
2603;DHT22;1311;47.966;7.958;2023-08-30T16:02:13;22.20;1.00
2603;DHT22;1311;47.966;7.958;2023-08-30T16:04:40;22.10;1.00
2603;DHT22;1311;47.966;7.958;2023-08-30T16:07:06;21.80;1.00
2603;DHT22;1311;47.966;7.958;2023-08-30T16:09:33;21.80;1.00